Time;durP1;ratioP1;P1;durP2;ratioP2;P2;SDS_P1;SDS_P2;PMS_P1;PMS_P2;Temp;Humidity;BMP_temperature;BMP_pressure;BME280_temperature;BME280_humidity;BME280_pressure;Samples;Min_cycle;Max_cycle;Signal;HPM_P1;HPM_P2
2023/10/26 00:01:54;;;;;;;35.47;28.87;;;9.70;99.90;;;;;;4975380;28;20176;-76
2023/10/26 00:04:20;;;;;;;33.43;28.57;;;9.70;99.90;;;;;;4974674;28;20187;-76
2023/10/26 00:06:46;;;;;;;33.10;27.27;;;9.70;99.90;;;;;;4974916;28;20172;-76
2023/10/26 00:09:11;;;;;;;34.37;28.47;;;9.80;99.90;;;;;;4974883;28;20234;-77
2023/10/26 00:11:37;;;;;;;36.03;27.67;;;9.80;99.90;;;;;;4974925;28;20211;-78
2023/10/26 00:14:03;;;;;;;41.43;29.37;;;9.70;99.90;;;;;;4974940;28;20214;-77
2023/10/26 00:16:28;;;;;;;35.87;28.53;;;9.70;99.90;;;;;;4974822;28;20528;-78
2023/10/26 00:18:54;;;;;;;38.20;27.87;;;9.80;99.90;;;;;;4974082;28;20194;-77
2023/10/26 00:21:21;;;;;;;37.40;29.27;;;9.70;99.90;;;;;;4974752;28;20164;-76
2023/10/26 00:23:46;;;;;;;39.77;28.37;;;9.70;99.90;;;;;;4974535;28;20240;-75
2023/10/26 00:26:12;;;;;;;40.40;29.27;;;9.60;99.90;;;;;;4974578;28;20168;-78
2023/10/26 00:28:39;;;;;;;35.50;28.57;;;9.60;99.90;;;;;;4974548;28;20183;-77
2023/10/26 00:31:05;;;;;;;33.57;27.30;;;9.60;99.90;;;;;;4974611;28;20583;-76
2023/10/26 00:33:31;;;;;;;35.03;27.57;;;9.50;99.90;;;;;;4974420;28;20168;-77
2023/10/26 00:35:56;;;;;;;37.43;28.00;;;9.50;99.90;;;;;;4974490;28;20175;-77
2023/10/26 00:38:22;;;;;;;43.33;28.97;;;9.50;99.90;;;;;;4974728;28;20183;-77
2023/10/26 00:40:47;;;;;;;39.67;28.87;;;9.50;99.90;;;;;;4974651;28;20242;-76
2023/10/26 00:43:24;;;;;;;35.20;27.70;;;9.50;99.90;;;;;;4974681;28;20655;-77
2023/10/26 00:45:53;;;;;;;37.70;28.53;;;9.50;99.90;;;;;;4974626;28;20187;-77
2023/10/26 00:48:23;;;;;;;35.47;28.10;;;9.50;99.90;;;;;;4973023;28;20283;-78
2023/10/26 00:50:48;;;;;;;36.57;27.83;;;9.50;99.90;;;;;;4974440;28;20263;-77
2023/10/26 00:53:18;;;;;;;36.33;28.03;;;9.60;99.90;;;;;;4973307;28;20183;-77
2023/10/26 00:55:47;;;;;;;38.40;27.83;;;9.60;99.90;;;;;;4974409;28;20267;-76
2023/10/26 00:58:14;;;;;;;37.00;27.80;;;9.60;99.90;;;;;;4974379;28;20574;-77
2023/10/26 01:00:40;;;;;;;31.70;26.90;;;9.60;99.90;;;;;;4974459;28;20215;-77
2023/10/26 01:03:06;;;;;;;37.57;27.37;;;9.50;99.90;;;;;;4974325;28;20179;-76
2023/10/26 01:05:32;;;;;;;33.53;27.07;;;9.60;99.90;;;;;;4974537;28;20179;-76
2023/10/26 01:07:58;;;;;;;35.93;27.10;;;9.50;99.90;;;;;;4974290;28;20176;-77
2023/10/26 01:10:24;;;;;;;36.03;27.67;;;9.60;99.90;;;;;;4974091;28;20306;-77
2023/10/26 01:12:50;;;;;;;41.30;28.03;;;9.60;99.90;;;;;;4974359;28;20230;-76
2023/10/26 01:15:16;;;;;;;38.77;28.00;;;9.70;99.90;;;;;;4974207;28;20180;-76
2023/10/26 01:17:42;;;;;;;37.13;28.37;;;9.70;99.90;;;;;;4972837;28;20203;-76
2023/10/26 01:20:08;;;;;;;39.07;27.97;;;9.70;99.90;;;;;;4974243;28;20203;-75
2023/10/26 01:22:34;;;;;;;36.67;26.33;;;9.70;99.90;;;;;;4974162;28;20218;-77
2023/10/26 01:24:59;;;;;;;39.77;26.67;;;9.80;99.90;;;;;;4974128;28;20232;-76
2023/10/26 01:27:25;;;;;;;36.50;26.57;;;9.80;99.90;;;;;;4974043;28;20180;-76
2023/10/26 01:29:51;;;;;;;31.63;26.40;;;9.80;99.90;;;;;;4975688;28;20668;-76
2023/10/26 01:32:16;;;;;;;35.20;25.90;;;9.80;99.90;;;;;;4977921;28;20642;-76
2023/10/26 01:34:42;;;;;;;36.47;25.87;;;9.80;99.90;;;;;;4977855;28;20172;-76
2023/10/26 01:37:07;;;;;;;35.90;25.80;;;9.80;99.90;;;;;;4977705;28;20612;-76
2023/10/26 01:39:33;;;;;;;31.80;25.30;;;9.80;99.90;;;;;;4977869;28;20259;-77
2023/10/26 01:41:59;;;;;;;30.47;24.73;;;9.80;99.90;;;;;;4977574;28;20187;-76
2023/10/26 01:44:24;;;;;;;32.33;25.10;;;9.80;99.90;;;;;;4977293;28;20172;-76
2023/10/26 01:46:50;;;;;;;33.90;25.47;;;9.90;99.90;;;;;;4977650;28;20206;-76
2023/10/26 01:49:16;;;;;;;35.77;26.20;;;9.90;99.90;;;;;;4976133;28;20208;-75
2023/10/26 01:51:41;;;;;;;36.17;26.20;;;10.00;99.90;;;;;;4977399;28;20191;-76
2023/10/26 01:54:07;;;;;;;34.80;25.60;;;10.00;99.90;;;;;;4976191;28;20183;-77
2023/10/26 01:56:33;;;;;;;36.77;27.20;;;10.00;99.90;;;;;;4977307;28;20214;-76
2023/10/26 01:58:58;;;;;;;37.20;26.20;;;10.10;99.90;;;;;;4977026;28;20183;-76
2023/10/26 02:01:24;;;;;;;38.33;25.90;;;10.00;99.90;;;;;;4977353;28;20203;-76
2023/10/26 02:03:50;;;;;;;36.37;26.20;;;10.10;99.90;;;;;;4977257;28;20251;-77
2023/10/26 02:06:16;;;;;;;34.53;24.87;;;10.10;99.90;;;;;;4977153;28;20230;-76
2023/10/26 02:08:42;;;;;;;33.60;25.77;;;10.10;99.90;;;;;;4977136;28;20628;-76
2023/10/26 02:11:08;;;;;;;36.90;25.80;;;10.10;99.90;;;;;;4977105;28;20262;-76
2023/10/26 02:13:37;;;;;;;33.40;25.93;;;10.10;99.90;;;;;;4976563;28;20271;-76
2023/10/26 02:16:03;;;;;;;34.57;25.83;;;10.10;99.90;;;;;;4976981;28;20172;-76
2023/10/26 02:18:29;;;;;;;34.87;25.77;;;10.20;99.90;;;;;;4977047;28;20643;-76
2023/10/26 02:20:55;;;;;;;34.53;25.67;;;10.30;99.90;;;;;;4976899;28;20176;-76
2023/10/26 02:23:21;;;;;;;37.90;25.43;;;10.30;99.90;;;;;;4976807;28;20227;-76
2023/10/26 02:25:47;;;;;;;39.23;26.97;;;10.40;99.90;;;;;;4976835;28;20223;-76
2023/10/26 02:28:16;;;;;;;37.07;26.10;;;10.40;99.90;;;;;;4976533;28;20176;-76
2023/10/26 02:30:45;;;;;;;30.60;24.53;;;10.30;99.90;;;;;;4976978;28;20215;-76
2023/10/26 02:33:11;;;;;;;33.73;25.40;;;10.30;99.90;;;;;;4975491;28;20214;-77
2023/10/26 02:35:40;;;;;;;34.57;25.40;;;10.30;99.90;;;;;;4976445;28;20195;-76
2023/10/26 02:38:06;;;;;;;33.70;25.13;;;10.30;99.90;;;;;;4976489;28;20222;-76
2023/10/26 02:40:32;;;;;;;37.60;26.43;;;10.30;99.90;;;;;;4974663;28;20184;-76
2023/10/26 02:42:59;;;;;;;37.50;27.17;;;10.40;99.90;;;;;;4976249;28;20216;-76
2023/10/26 02:45:26;;;;;;;35.43;26.30;;;10.50;99.90;;;;;;4976386;28;20203;-75
2023/10/26 02:47:52;;;;;;;35.97;27.20;;;10.50;99.90;;;;;;4976246;28;20175;-76
2023/10/26 02:50:17;;;;;;;34.53;25.33;;;10.60;99.90;;;;;;4976088;28;20208;-76
2023/10/26 02:52:43;;;;;;;33.87;24.53;;;10.50;99.90;;;;;;4976213;28;20262;-77
2023/10/26 02:55:09;;;;;;;36.80;25.40;;;10.30;99.90;;;;;;4976180;28;20219;-75
2023/10/26 02:57:34;;;;;;;36.87;25.63;;;10.20;99.90;;;;;;4975982;28;20172;-77
2023/10/26 03:00:00;;;;;;;36.17;25.53;;;10.20;99.90;;;;;;4976235;28;20259;-76
2023/10/26 03:02:26;;;;;;;35.73;25.83;;;10.20;99.90;;;;;;4974633;28;20175;-76
2023/10/26 03:04:51;;;;;;;43.07;25.07;;;10.30;99.90;;;;;;4975950;28;20667;-77
2023/10/26 03:07:22;;;;;;;35.57;24.83;;;10.20;99.90;;;;;;4976114;28;20196;-76
2023/10/26 03:09:49;;;;;;;40.53;25.87;;;10.20;99.90;;;;;;4975928;28;20244;-76
2023/10/26 03:12:15;;;;;;;35.33;24.27;;;10.20;99.90;;;;;;4974346;28;20654;-76
2023/10/26 03:14:41;;;;;;;38.97;26.53;;;10.30;99.90;;;;;;4975494;28;20176;-76
2023/10/26 03:17:06;;;;;;;40.27;25.13;;;10.20;99.90;;;;;;4975750;28;20254;-76
2023/10/26 03:19:32;;;;;;;34.63;24.70;;;10.20;99.90;;;;;;4975560;28;20224;-76
2023/10/26 03:21:58;;;;;;;33.83;24.63;;;10.20;99.90;;;;;;4975418;28;20180;-76
2023/10/26 03:24:24;;;;;;;35.20;25.83;;;10.10;99.90;;;;;;4975356;28;20220;-77
2023/10/26 03:26:49;;;;;;;34.33;25.67;;;10.00;99.90;;;;;;4973708;28;20182;-77
2023/10/26 03:29:15;;;;;;;34.53;24.37;;;9.90;99.90;;;;;;4975328;28;20172;-76
2023/10/26 03:31:41;;;;;;;37.33;26.10;;;9.80;99.90;;;;;;4975234;28;20214;-77
2023/10/26 03:34:07;;;;;;;35.07;26.60;;;9.80;99.90;;;;;;4973708;28;20172;-76
2023/10/26 03:36:33;;;;;;;44.37;32.93;;;9.80;99.90;;;;;;4975302;28;20219;-76
2023/10/26 03:38:59;;;;;;;51.23;36.30;;;9.80;99.90;;;;;;4975227;28;20180;-76
2023/10/26 03:41:24;;;;;;;47.77;33.57;;;9.80;99.90;;;;;;4974866;28;20578;-76
2023/10/26 03:43:50;;;;;;;44.03;30.07;;;9.70;99.90;;;;;;4975160;28;20214;-78
2023/10/26 03:46:16;;;;;;;40.87;27.67;;;9.70;99.90;;;;;;4974804;28;20215;-76
2023/10/26 03:48:42;;;;;;;38.70;25.73;;;9.70;99.90;;;;;;4975042;28;20606;-76
2023/10/26 03:51:08;;;;;;;40.03;27.33;;;9.70;99.90;;;;;;4974943;28;20214;-75
2023/10/26 03:53:33;;;;;;;42.10;28.43;;;9.70;99.90;;;;;;4974278;28;20208;-76
2023/10/26 03:55:59;;;;;;;44.97;30.30;;;9.70;99.90;;;;;;4973078;28;20210;-76
2023/10/26 03:58:25;;;;;;;44.00;30.20;;;9.70;99.90;;;;;;4974700;28;20191;-76
2023/10/26 04:00:51;;;;;;;39.40;28.23;;;9.60;99.90;;;;;;4974720;28;20171;-76
2023/10/26 04:03:17;;;;;;;45.27;30.40;;;9.60;99.90;;;;;;4974576;28;20176;-76
2023/10/26 04:05:43;;;;;;;41.67;28.80;;;9.60;99.90;;;;;;4974705;28;20254;-75
2023/10/26 04:08:09;;;;;;;46.30;30.70;;;9.60;99.90;;;;;;4974322;28;20179;-76
2023/10/26 04:10:35;;;;;;;59.93;38.30;;;9.70;99.90;;;;;;4973859;28;20291;-77
2023/10/26 04:13:01;;;;;;;66.87;44.77;;;9.70;99.90;;;;;;4974672;28;20190;-77
2023/10/26 04:15:27;;;;;;;48.20;30.07;;;9.70;99.90;;;;;;4972896;28;20184;-75
2023/10/26 04:17:53;;;;;;;45.37;30.73;;;9.60;99.90;;;;;;4974694;28;20539;-77
2023/10/26 04:20:20;;;;;;;47.63;30.57;;;9.60;99.90;;;;;;4974171;28;20255;-76
2023/10/26 04:22:46;;;;;;;51.53;30.80;;;9.60;99.90;;;;;;4974378;28;20172;-76
2023/10/26 04:25:12;;;;;;;48.57;32.17;;;9.60;99.90;;;;;;4973517;28;20231;-76
2023/10/26 04:27:38;;;;;;;50.27;31.93;;;9.50;99.90;;;;;;4974470;28;20195;-76
2023/10/26 04:30:05;;;;;;;47.73;31.73;;;9.50;99.90;;;;;;4974235;28;20675;-76
2023/10/26 04:32:30;;;;;;;42.47;30.17;;;9.30;99.90;;;;;;4974059;28;20178;-76
2023/10/26 04:34:56;;;;;;;43.77;29.27;;;9.20;99.90;;;;;;4973958;28;20524;-76
2023/10/26 04:37:22;;;;;;;44.07;30.17;;;9.10;99.90;;;;;;4974482;28;20284;-76
2023/10/26 04:39:47;;;;;;;47.77;30.27;;;9.10;99.90;;;;;;4974043;28;20198;-76
2023/10/26 04:42:13;;;;;;;44.47;30.17;;;9.10;99.90;;;;;;4972992;28;20631;-77
2023/10/26 04:44:40;;;;;;;42.43;28.50;;;9.10;99.90;;;;;;4974336;28;20680;-76
2023/10/26 04:47:05;;;;;;;39.77;25.93;;;9.10;99.90;;;;;;4973349;28;20211;-77
2023/10/26 04:49:33;;;;;;;41.43;28.17;;;9.00;99.90;;;;;;4973626;28;20237;-76
2023/10/26 04:51:59;;;;;;;35.07;21.30;;;9.00;99.90;;;;;;4973813;28;20239;-76
2023/10/26 04:54:27;;;;;;;40.87;25.33;;;9.10;99.90;;;;;;4973709;28;20172;-77
2023/10/26 04:56:53;;;;;;;36.40;25.03;;;9.10;99.90;;;;;;4974166;28;20676;-74
2023/10/26 04:59:19;;;;;;;33.60;21.73;;;9.10;99.90;;;;;;4973669;28;20193;-76
2023/10/26 05:01:44;;;;;;;35.47;21.23;;;9.10;99.90;;;;;;4973917;28;20509;-76
2023/10/26 05:04:10;;;;;;;45.53;28.13;;;9.20;99.90;;;;;;4974514;28;20207;-77
2023/10/26 05:06:36;;;;;;;40.13;23.63;;;9.20;99.90;;;;;;4977467;28;20175;-76
2023/10/26 05:09:03;;;;;;;32.80;20.90;;;9.30;99.90;;;;;;4977052;28;20171;-75
2023/10/26 05:11:29;;;;;;;32.83;21.03;;;9.30;99.90;;;;;;4977538;28;20258;-77
2023/10/26 05:13:55;;;;;;;34.10;21.97;;;9.30;99.90;;;;;;4976247;28;20589;-75
2023/10/26 05:16:21;;;;;;;38.50;23.83;;;9.40;99.90;;;;;;4977584;28;20755;-75
2023/10/26 05:18:46;;;;;;;40.60;23.73;;;9.40;99.90;;;;;;4976489;28;20195;-75
2023/10/26 05:21:12;;;;;;;42.93;26.50;;;9.40;99.90;;;;;;4977255;28;20179;-77
2023/10/26 05:23:39;;;;;;;44.03;27.73;;;9.50;99.90;;;;;;4976846;28;20302;-76
2023/10/26 05:26:05;;;;;;;40.60;28.17;;;9.40;99.90;;;;;;4977181;28;20180;-75
2023/10/26 05:28:31;;;;;;;42.77;27.83;;;9.40;99.90;;;;;;4977313;28;20165;-75
2023/10/26 05:30:56;;;;;;;39.87;27.20;;;9.40;99.90;;;;;;4977141;28;20212;-77
2023/10/26 05:33:22;;;;;;;37.07;24.80;;;9.30;99.90;;;;;;4977327;28;20169;-76
2023/10/26 05:35:48;;;;;;;34.03;24.10;;;9.20;99.90;;;;;;4977165;28;20255;-77
2023/10/26 05:38:18;;;;;;;34.27;21.00;;;9.20;99.90;;;;;;4976233;28;20168;-77
2023/10/26 05:40:52;;;;;;;33.43;22.50;;;9.30;99.90;;;;;;4976954;28;20165;-77
2023/10/26 05:43:18;;;;;;;31.87;20.43;;;9.30;99.90;;;;;;4976704;28;20196;-76
2023/10/26 05:45:43;;;;;;;33.60;21.27;;;9.30;99.90;;;;;;4976770;28;20639;-76
2023/10/26 05:48:10;;;;;;;31.47;21.33;;;9.20;99.90;;;;;;4976771;28;20176;-77
2023/10/26 05:50:40;;;;;;;31.63;21.57;;;9.30;99.90;;;;;;4976239;28;20250;-75
2023/10/26 05:53:06;;;;;;;28.73;20.90;;;9.40;99.90;;;;;;4976164;28;20171;-76
2023/10/26 05:55:32;;;;;;;29.57;20.50;;;9.40;99.90;;;;;;4976469;28;20542;-77
2023/10/26 05:57:58;;;;;;;32.70;22.37;;;9.40;99.90;;;;;;4976424;28;20191;-76
2023/10/26 06:00:25;;;;;;;35.67;23.03;;;9.40;99.90;;;;;;4976615;28;20172;-76
2023/10/26 06:02:51;;;;;;;32.27;23.60;;;9.50;99.90;;;;;;4976083;28;20176;-76
2023/10/26 06:05:17;;;;;;;33.87;24.23;;;9.50;99.90;;;;;;4976245;28;20530;-76
2023/10/26 06:07:43;;;;;;;39.47;24.90;;;9.40;99.90;;;;;;4976046;28;20258;-76
2023/10/26 06:10:10;;;;;;;36.10;23.83;;;9.30;99.90;;;;;;4976107;28;20207;-77
2023/10/26 06:12:36;;;;;;;34.47;23.90;;;9.40;99.90;;;;;;4976685;28;20180;-77
2023/10/26 06:15:01;;;;;;;36.37;21.40;;;9.40;99.90;;;;;;4975472;28;20203;-77
2023/10/26 06:17:27;;;;;;;36.07;24.07;;;9.40;99.90;;;;;;4975204;28;20196;-77
2023/10/26 06:19:53;;;;;;;27.73;20.50;;;9.50;99.90;;;;;;4976128;28;20176;-76
2023/10/26 06:22:19;;;;;;;31.27;20.93;;;9.40;99.90;;;;;;4974437;28;20183;-77
2023/10/26 06:24:44;;;;;;;26.93;19.93;;;9.50;99.90;;;;;;4975395;28;20310;-77
2023/10/26 06:27:11;;;;;;;26.60;18.00;;;9.50;99.90;;;;;;4975943;28;20691;-77
2023/10/26 06:29:37;;;;;;;26.70;18.90;;;9.50;99.90;;;;;;4974972;28;20679;-77
2023/10/26 06:32:03;;;;;;;25.27;17.23;;;9.40;99.90;;;;;;4976148;28;20179;-76
2023/10/26 06:34:29;;;;;;;22.43;16.10;;;9.40;99.90;;;;;;4975315;28;20168;-78
2023/10/26 06:36:55;;;;;;;23.63;16.57;;;9.40;99.90;;;;;;4975518;28;20168;-77
2023/10/26 06:39:21;;;;;;;23.60;17.10;;;9.50;99.90;;;;;;4975357;28;20499;-78
2023/10/26 06:41:47;;;;;;;22.53;17.23;;;9.50;99.90;;;;;;4975750;28;20261;-75
2023/10/26 06:44:13;;;;;;;23.83;17.03;;;9.50;99.90;;;;;;4975666;28;20172;-78
2023/10/26 06:46:38;;;;;;;26.90;17.30;;;9.50;99.90;;;;;;4975975;28;20179;-76
2023/10/26 06:49:04;;;;;;;23.27;16.83;;;9.50;99.90;;;;;;4975031;28;20684;-76
2023/10/26 06:51:30;;;;;;;20.40;16.03;;;9.60;99.90;;;;;;4975833;28;20269;-77
2023/10/26 06:53:55;;;;;;;20.63;15.47;;;9.70;99.90;;;;;;4975193;28;20176;-77
2023/10/26 06:56:21;;;;;;;20.37;15.13;;;9.80;99.90;;;;;;4975674;28;20187;-77
2023/10/26 06:58:47;;;;;;;20.57;15.07;;;10.00;99.90;;;;;;4975358;28;20251;-78
2023/10/26 07:01:13;;;;;;;18.80;14.43;;;10.10;99.90;;;;;;4975620;28;20270;-75
2023/10/26 07:03:39;;;;;;;20.53;14.10;;;10.20;99.90;;;;;;4974073;28;20207;-78
2023/10/26 07:06:05;;;;;;;18.30;13.10;;;10.50;99.90;;;;;;4974871;28;20184;-77
2023/10/26 07:08:34;;;;;;;19.13;12.30;;;10.50;99.90;;;;;;4975376;28;20191;-76
2023/10/26 07:11:05;;;;;;;17.40;14.07;;;10.70;99.90;;;;;;4975268;28;20211;-76
2023/10/26 07:13:31;;;;;;;14.43;11.93;;;10.90;99.90;;;;;;4975528;28;20640;-77
2023/10/26 07:16:01;;;;;;;16.57;12.20;;;11.00;99.90;;;;;;4973781;28;20176;-77
2023/10/26 07:18:27;;;;;;;14.07;11.00;;;11.20;99.90;;;;;;4974000;28;20164;-77
2023/10/26 07:20:53;;;;;;;12.33;10.60;;;11.30;99.90;;;;;;4974819;28;20174;-74
2023/10/26 07:23:19;;;;;;;13.20;10.13;;;11.30;99.90;;;;;;4974399;28;20726;-76
2023/10/26 07:25:45;;;;;;;11.77;9.57;;;11.30;99.90;;;;;;4975225;28;20184;-74
2023/10/26 07:28:11;;;;;;;11.10;9.50;;;11.40;99.90;;;;;;4974577;28;20168;-75
2023/10/26 07:30:42;;;;;;;13.30;10.67;;;11.60;99.90;;;;;;4974551;28;20200;-72
2023/10/26 07:33:09;;;;;;;11.33;9.33;;;11.60;99.90;;;;;;4974652;28;20614;-73
2023/10/26 07:35:40;;;;;;;10.43;8.70;;;11.60;99.90;;;;;;4974444;28;20180;-74
2023/10/26 07:38:07;;;;;;;11.57;10.37;;;11.60;99.90;;;;;;4974689;28;20207;-74
2023/10/26 07:40:33;;;;;;;12.27;9.77;;;11.60;99.90;;;;;;4974171;28;20271;-74
2023/10/26 07:42:58;;;;;;;13.20;9.90;;;11.80;99.90;;;;;;4974726;28;20245;-75
2023/10/26 07:45:25;;;;;;;11.80;9.77;;;12.10;99.90;;;;;;4972914;28;20226;-73
2023/10/26 07:47:51;;;;;;;11.80;10.10;;;12.50;99.90;;;;;;4974175;28;20195;-74
2023/10/26 07:50:19;;;;;;;10.30;9.20;;;12.60;99.90;;;;;;4974268;28;20215;-74
2023/10/26 07:52:45;;;;;;;10.10;9.13;;;12.60;99.90;;;;;;4974823;28;20258;-74
2023/10/26 07:55:11;;;;;;;10.33;9.27;;;12.50;99.90;;;;;;4974745;28;20600;-75
2023/10/26 07:57:37;;;;;;;13.30;9.83;;;12.50;99.90;;;;;;4974791;28;20176;-74
2023/10/26 08:00:04;;;;;;;8.80;7.90;;;12.40;99.90;;;;;;4974439;28;20172;-76
2023/10/26 08:02:31;;;;;;;8.60;7.70;;;12.30;99.90;;;;;;4973640;28;20214;-74
2023/10/26 08:04:57;;;;;;;8.73;7.83;;;12.30;99.90;;;;;;4974264;28;20246;-73
2023/10/26 08:07:23;;;;;;;10.97;8.33;;;12.20;99.90;;;;;;4973769;28;20206;-73
2023/10/26 08:09:48;;;;;;;12.87;8.13;;;12.00;99.90;;;;;;4974454;28;20307;-74
2023/10/26 08:12:14;;;;;;;8.40;7.57;;;12.00;99.90;;;;;;4974342;28;20176;-74
2023/10/26 08:14:40;;;;;;;9.70;8.03;;;12.00;99.90;;;;;;4974064;28;20179;-74
2023/10/26 08:17:05;;;;;;;8.67;7.80;;;12.20;99.90;;;;;;4973349;28;20171;-75
2023/10/26 08:19:31;;;;;;;8.27;7.47;;;12.20;99.90;;;;;;4973591;28;20179;-74
2023/10/26 08:21:57;;;;;;;9.97;7.73;;;12.00;99.90;;;;;;4973498;28;20183;-73
2023/10/26 08:24:22;;;;;;;9.83;7.50;;;12.00;99.90;;;;;;4974246;28;20230;-74
2023/10/26 08:26:49;;;;;;;11.00;7.73;;;11.90;99.90;;;;;;4973797;28;20183;-73
2023/10/26 08:29:15;;;;;;;10.60;7.87;;;12.00;99.90;;;;;;4973301;28;20180;-74
2023/10/26 08:31:40;;;;;;;8.47;7.67;;;12.00;99.90;;;;;;4973576;28;20712;-72
2023/10/26 08:34:06;;;;;;;11.80;8.63;;;12.00;99.90;;;;;;4973403;28;20643;-73
2023/10/26 08:36:32;;;;;;;9.63;8.63;;;12.10;99.90;;;;;;4973945;28;20267;-73
2023/10/26 08:38:58;;;;;;;10.37;9.20;;;12.10;99.90;;;;;;4973510;28;20172;-73
2023/10/26 08:41:23;;;;;;;9.47;8.47;;;12.20;99.90;;;;;;4973950;28;20179;-72
2023/10/26 08:43:50;;;;;;;10.17;8.30;;;12.20;99.90;;;;;;4973633;28;20628;-73
2023/10/26 08:46:17;;;;;;;9.73;8.73;;;12.10;99.90;;;;;;4973333;28;20258;-74
2023/10/26 08:48:46;;;;;;;8.87;7.90;;;11.90;99.90;;;;;;4973107;28;20203;-72
2023/10/26 08:51:12;;;;;;;8.57;7.77;;;11.80;99.90;;;;;;4973574;28;20267;-73
2023/10/26 08:53:39;;;;;;;8.03;7.33;;;11.80;99.90;;;;;;4973955;28;20176;-72
2023/10/26 08:56:08;;;;;;;11.17;8.13;;;11.90;99.90;;;;;;4971301;28;20178;-73
2023/10/26 08:58:33;;;;;;;13.03;8.53;;;11.90;99.90;;;;;;4972392;28;20687;-74
2023/10/26 09:01:01;;;;;;;9.50;8.50;;;12.00;99.90;;;;;;4972860;28;20176;-73
2023/10/26 09:03:26;;;;;;;9.63;8.73;;;12.10;99.90;;;;;;4973062;28;20254;-73
2023/10/26 09:05:54;;;;;;;9.80;8.80;;;12.00;99.90;;;;;;4973710;28;20262;-73
2023/10/26 09:08:19;;;;;;;9.10;7.87;;;11.80;99.90;;;;;;4973508;28;20160;-73
2023/10/26 09:10:45;;;;;;;8.90;8.00;;;11.60;99.90;;;;;;4972782;28;20560;-73
2023/10/26 09:13:11;;;;;;;11.10;8.27;;;11.60;99.90;;;;;;4973243;28;20171;-73
2023/10/26 09:15:51;;;;;;;8.73;7.93;;;11.50;99.90;;;;;;4973605;28;20172;-73
2023/10/26 09:18:17;;;;;;;9.33;8.40;;;11.50;99.90;;;;;;4973729;28;20655;-72
2023/10/26 09:20:59;;;;;;;11.50;9.00;;;11.60;99.90;;;;;;4973545;28;20228;-74
2023/10/26 09:23:29;;;;;;;10.17;8.20;;;11.70;99.90;;;;;;4973293;28;20244;-73
2023/10/26 09:25:59;;;;;;;10.90;8.07;;;11.70;99.90;;;;;;4973323;28;20182;-74
2023/10/26 09:28:25;;;;;;;8.80;7.90;;;11.70;99.90;;;;;;4973292;28;20235;-73
2023/10/26 09:30:57;;;;;;;8.67;7.73;;;11.80;99.90;;;;;;4972563;28;20742;-73
2023/10/26 09:33:24;;;;;;;11.03;7.77;;;12.00;99.90;;;;;;4973536;28;20173;-73
2023/10/26 09:35:50;;;;;;;7.87;7.07;;;12.10;99.90;;;;;;4973481;28;20283;-73
2023/10/26 09:38:21;;;;;;;8.10;7.40;;;12.10;99.90;;;;;;4973449;28;20303;-73
2023/10/26 09:40:49;;;;;;;8.90;8.10;;;12.20;99.90;;;;;;4972841;28;20176;-75
2023/10/26 09:43:14;;;;;;;8.23;7.37;;;12.50;99.90;;;;;;4973187;28;20184;-75
2023/10/26 09:45:41;;;;;;;8.60;7.07;;;12.70;99.90;;;;;;4971898;28;20295;-74
2023/10/26 09:48:07;;;;;;;7.77;7.07;;;12.70;99.90;;;;;;4973081;28;20172;-74
2023/10/26 09:50:39;;;;;;;7.33;6.70;;;12.60;99.90;;;;;;4974735;28;20214;-75
2023/10/26 09:53:06;;;;;;;6.93;6.33;;;12.80;99.90;;;;;;4975580;28;20573;-77
2023/10/26 09:55:32;;;;;;;6.33;5.83;;;13.60;99.90;;;;;;4976775;28;20186;-77
2023/10/26 09:58:05;;;;;;;6.23;5.73;;;14.70;99.90;;;;;;4976247;28;20194;-75
2023/10/26 10:00:32;;;;;;;6.20;5.70;;;15.70;99.90;;;;;;4976206;28;20180;-78
2023/10/26 10:03:12;;;;;;;6.72;6.07;;;16.40;99.90;;;;;;4976651;28;20262;-76
2023/10/26 10:05:40;;;;;;;6.75;6.13;;;16.90;99.90;;;;;;4975553;28;20179;-75
2023/10/26 10:08:06;;;;;;;7.53;6.93;;;16.70;99.90;;;;;;4976528;28;20679;-75
2023/10/26 10:10:33;;;;;;;7.97;7.28;;;15.80;99.90;;;;;;4975962;28;20228;-76
2023/10/26 10:12:59;;;;;;;7.70;7.10;;;15.20;99.90;;;;;;4976258;28;20310;-76
2023/10/26 10:15:43;;;;;;;8.40;7.60;;;14.80;99.90;;;;;;4976426;28;20176;-76
2023/10/26 10:18:09;;;;;;;8.37;7.67;;;14.50;99.90;;;;;;4976691;28;20179;-73
2023/10/26 10:20:37;;;;;;;10.03;8.43;;;14.50;99.90;;;;;;4976121;28;20183;-74
2023/10/26 10:23:03;;;;;;;9.53;8.03;;;14.60;99.90;;;;;;4976210;28;20176;-76
2023/10/26 10:25:49;;;;;;;8.03;7.33;;;14.80;99.90;;;;;;4976665;28;20198;-76
2023/10/26 10:28:18;;;;;;;7.60;6.90;;;15.90;99.90;;;;;;4965822;28;20188;-76
2023/10/26 10:30:59;;;;;;;7.63;6.90;;;16.80;99.90;;;;;;4974698;28;20784;-77
2023/10/26 10:33:28;;;;;;;7.50;6.90;;;17.10;99.90;;;;;;4974854;28;20183;-76
2023/10/26 10:36:02;;;;;;;7.18;6.57;;;17.40;99.90;;;;;;4976312;28;20183;-75
2023/10/26 10:38:29;;;;;;;8.75;7.88;;;16.90;99.90;;;;;;4974212;28;20201;-75
2023/10/26 10:40:55;;;;;;;7.70;7.10;;;16.90;99.90;;;;;;4973509;28;20180;-75
2023/10/26 10:43:43;;;;;;;8.60;7.70;;;16.60;99.90;;;;;;4976475;28;20243;-75
2023/10/26 10:46:20;;;;;;;8.30;7.60;;;16.30;99.90;;;;;;4975623;28;20240;-75
2023/10/26 10:49:08;;;;;;;9.23;8.30;;;15.90;99.90;;;;;;4976110;28;20659;-76
2023/10/26 10:51:42;;;;;;;9.25;7.20;;;15.50;99.90;;;;;;4975468;28;20290;-74
2023/10/26 10:54:13;;;;;;;8.00;7.20;;;15.30;99.90;;;;;;4975798;28;20263;-75
2023/10/26 10:56:40;;;;;;;8.50;7.40;;;15.30;99.90;;;;;;4974622;28;20187;-76
2023/10/26 10:59:22;;;;;;;7.70;7.03;;;15.60;99.90;;;;;;4975266;28;20172;-75
2023/10/26 11:01:48;;;;;;;7.20;6.60;;;15.60;99.90;;;;;;4974978;28;20706;-74
2023/10/26 11:04:14;;;;;;;6.67;6.17;;;15.50;99.90;;;;;;4975321;28;20228;-73
2023/10/26 11:06:49;;;;;;;7.40;6.70;;;15.30;99.90;;;;;;4974083;28;20572;-74
2023/10/26 11:09:31;;;;;;;8.83;6.07;;;14.70;99.90;;;;;;4974219;28;20183;-71
2023/10/26 11:12:10;;;;;;;7.40;6.70;;;14.50;99.90;;;;;;4974456;28;20188;-74
2023/10/26 11:14:45;;;;;;;7.60;6.90;;;14.30;99.90;;;;;;4975259;28;20635;-75
2023/10/26 11:17:14;;;;;;;7.23;6.33;;;14.10;99.90;;;;;;4975187;28;20175;-75
2023/10/26 11:19:39;;;;;;;8.40;7.10;;;13.90;99.90;;;;;;4957803;28;20267;-75
2023/10/26 11:22:06;;;;;;;7.17;6.47;;;13.90;99.90;;;;;;4974811;28;20678;-74
2023/10/26 11:24:32;;;;;;;10.67;6.83;;;13.70;99.90;;;;;;4974424;28;20223;-74
2023/10/26 11:27:07;;;;;;;8.07;7.27;;;13.50;99.90;;;;;;4974750;28;20180;-75
2023/10/26 11:29:33;;;;;;;7.03;6.33;;;13.50;99.90;;;;;;4974826;28;20175;-73
2023/10/26 11:31:58;;;;;;;8.10;6.47;;;13.30;99.90;;;;;;4974490;28;20231;-73
2023/10/26 11:34:27;;;;;;;7.70;7.00;;;13.20;99.90;;;;;;4974815;28;20255;-74
2023/10/26 11:36:53;;;;;;;10.20;7.27;;;13.30;99.90;;;;;;4974819;28;20601;-74
2023/10/26 11:39:19;;;;;;;8.27;6.37;;;13.40;99.90;;;;;;4973939;28;20186;-74
2023/10/26 11:41:55;;;;;;;6.93;6.27;;;13.30;99.90;;;;;;4974702;28;20588;-74
2023/10/26 11:44:25;;;;;;;7.50;6.53;;;13.30;99.90;;;;;;4975018;28;20223;-73
2023/10/26 11:46:58;;;;;;;6.73;6.03;;;13.40;99.90;;;;;;4973904;28;20184;-73
2023/10/26 11:49:38;;;;;;;8.63;6.57;;;13.40;99.90;;;;;;4973986;28;20187;-75
2023/10/26 11:52:04;;;;;;;7.70;5.77;;;13.30;99.90;;;;;;4973898;28;20546;-74
2023/10/26 11:54:29;;;;;;;8.47;5.53;;;13.40;99.90;;;;;;4973676;28;20310;-75
2023/10/26 11:56:55;;;;;;;4.47;4.10;;;13.40;99.90;;;;;;4973769;28;20192;-74
2023/10/26 11:59:21;;;;;;;5.10;4.70;;;13.40;99.90;;;;;;4973774;28;20211;-73
2023/10/26 12:01:47;;;;;;;7.20;4.70;;;13.40;99.90;;;;;;4972330;28;20237;-73
2023/10/26 12:04:13;;;;;;;4.93;4.50;;;13.40;99.90;;;;;;4987137;28;20183;-74
2023/10/26 12:06:39;;;;;;;3.70;3.40;;;13.20;99.90;;;;;;4977411;28;20183;-75
2023/10/26 12:09:06;;;;;;;5.03;4.53;;;13.10;99.90;;;;;;4988696;28;20538;-74
2023/10/26 12:11:32;;;;;;;4.97;4.50;;;13.10;99.90;;;;;;4980465;28;20210;-75
2023/10/26 12:13:58;;;;;;;4.33;2.90;;;13.00;99.90;;;;;;4981797;28;20648;-75
2023/10/26 12:16:23;;;;;;;3.90;3.07;;;12.90;99.90;;;;;;4987307;28;20253;-76
2023/10/26 12:18:49;;;;;;;2.97;2.67;;;12.90;99.90;;;;;;4976798;28;20212;-76
2023/10/26 12:21:15;;;;;;;3.90;2.80;;;13.00;99.90;;;;;;4986405;28;20175;-76
2023/10/26 12:23:41;;;;;;;4.23;3.27;;;13.00;99.90;;;;;;4980286;28;20687;-76
2023/10/26 12:26:07;;;;;;;3.53;3.33;;;12.80;99.90;;;;;;4981089;28;20262;-76
2023/10/26 12:28:32;;;;;;;4.93;3.50;;;12.60;99.90;;;;;;4989161;28;20167;-75
2023/10/26 12:30:58;;;;;;;5.93;3.80;;;12.70;99.90;;;;;;4974702;28;20226;-75
2023/10/26 12:33:24;;;;;;;3.20;3.00;;;12.90;99.90;;;;;;4986070;28;20255;-75
2023/10/26 12:35:50;;;;;;;4.07;3.77;;;12.90;99.90;;;;;;4982976;28;20587;-73
2023/10/26 12:38:19;;;;;;;4.73;3.20;;;12.90;99.90;;;;;;4977091;28;20192;-74